Estación meteorológica de Montseny - Mas Joan (Vallès Oriental, P.N.del Montseny)

Consulta los datos en tiempo real de la estación meteorológica de Montseny - Mas Joan





Hora UTC 12:20
Temperatura 14.1 ºC
Humedad 60.1 %
Pluja 0.2 mm
Velocidad viento 3.3 km/h
Dirección viento S
Radiación solar 353.6 W/m²

Datos diarios 2026-05-06



Hora UTC (invierno +1h; verano +2h)
Temperatura (ºC) Humedad (%) Velocidad viento (km/h) Precipitación (mm) Radiación solar (W/m²)
Hora UTC Aire Humedad Vel. Dir. Vel. Max Dir. Intent. máx 5 min. Rad. Sol.
00:05 10.3 68.0 8.0 NNW 16.0 N 0.0 0.3
00:10 10.2 69.6 4.1 NW 10.9 NNW 0.0 0.0
00:15 9.6 73.2 3.3 NNW 8.2 NNW 0.0 0.0
00:20 9.6 72.1 3.2 NW 7.5 ENE 0.0 0.0
00:25 9.6 73.5 5.8 NW 9.7 NW 0.0 0.0
00:30 9.5 73.8 4.9 WNW 9.2 NW 0.0 0.0
00:35 9.2 76.2 5.0 NW 9.3 NW 0.0 0.0
00:40 9.0 77.2 3.7 W 6.7 WNW 0.0 0.0
00:45 8.7 80.3 3.8 W 8.2 NW 0.0 0.0
00:50 8.4 82.5 3.6 WSW 6.2 WNW 0.0 0.0
00:55 8.2 83.0 3.1 WSW 7.5 WNW 0.0 0.0
01:00 8.0 83.4 3.9 W 8.0 NNW 0.0 0.0
01:05 8.0 83.3 3.1 WSW 4.9 SW 0.0 0.0
01:10 7.9 83.7 3.0 WSW 4.6 WSW 0.0 0.0
01:15 7.7 84.7 3.3 WSW 5.9 W 0.0 0.0
01:20 7.8 84.9 2.7 W 5.9 WSW 0.0 0.0
01:25 7.7 86.4 2.7 W 4.2 WSW 0.0 0.0
01:30 7.6 86.6 3.2 W 5.9 WSW 0.0 0.0
01:35 7.6 85.4 3.6 W 7.2 WNW 0.0 0.0
01:40 7.6 86.0 2.6 WSW 4.2 W 0.0 0.0
01:45 7.5 87.7 3.6 W 8.4 WSW 0.0 0.0
01:50 7.5 87.3 2.9 W 4.3 W 0.0 0.0
01:55 7.5 87.3 3.3 W 4.5 W 0.0 0.0
02:00 7.4 87.6 2.7 W 3.5 W 0.0 0.0
02:05 7.3 88.2 3.4 WSW 5.0 WNW 0.0 0.0
02:10 7.4 88.2 2.5 WSW 4.3 WNW 0.0 0.0
02:15 7.4 88.5 3.2 W 5.9 WSW 0.0 0.0
02:20 7.3 88.0 3.0 WSW 3.9 WSW 0.0 0.0
02:25 7.2 88.7 3.0 W 5.3 W 0.0 0.0
02:30 7.2 88.8 2.7 WSW 4.7 WSW 0.0 0.0
02:35 7.1 89.3 2.5 SW 5.2 SW 0.0 0.0
02:40 7.1 90.1 2.2 WSW 3.8 W 0.0 0.0
02:45 7.1 90.5 3.3 WSW 4.8 W 0.0 0.0
02:50 7.3 90.4 2.8 WSW 4.1 W 0.0 0.0
02:55 7.1 90.1 2.6 SW 3.7 WSW 0.0 0.0
03:00 6.9 90.8 2.3 WSW 3.6 WSW 0.0 0.0
03:05 7.0 91.9 2.3 WSW 3.8 WNW 0.0 0.0
03:10 7.0 92.5 2.5 WSW 5.0 WSW 0.0 0.0
03:15 7.0 92.4 2.7 WSW 5.4 WSW 0.0 0.0
03:20 7.0 92.1 3.5 W 5.7 W 0.0 0.0
03:25 6.9 91.4 2.5 WSW 4.4 WNW 0.0 0.0
03:30 7.0 91.0 3.1 WSW 4.5 WSW 0.0 0.0
03:35 6.9 91.2 3.1 WSW 4.4 WSW 0.0 0.0
03:40 6.8 91.6 2.4 WSW 3.3 W 0.1 0.0
03:45 6.7 91.8 2.3 WSW 5.5 W 0.0 0.0
03:50 6.8 92.0 2.8 W 4.3 W 0.0 0.0
03:55 6.7 91.8 3.0 WSW 4.8 WSW 0.0 0.0
04:00 6.8 91.3 2.9 W 5.0 W 0.0 0.0
04:05 6.9 89.8 3.5 WNW 6.9 WNW 0.0 0.0
04:10 7.0 86.4 2.7 WNW 5.1 WNW 0.0 0.0
04:15 7.2 84.0 2.6 NW 5.2 NW 0.0 0.0
04:20 7.2 83.8 2.5 NW 7.8 WSW 0.0 0.0
04:25 7.3 83.2 2.4 NW 5.5 W 0.0 0.0
04:30 7.2 83.6 3.2 NW 5.4 NNW 0.0 0.0
04:35 7.3 83.4 3.4 NW 5.6 NW 0.0 0.0
04:40 7.3 83.2 2.3 NW 5.5 NNW 0.0 0.4
04:45 7.3 84.1 2.2 W 4.8 NNW 0.0 2.3
04:50 7.2 84.7 2.3 W 4.0 WNW 0.0 4.9
04:55 7.1 84.8 2.7 WNW 4.7 NW 0.0 7.0
05:00 7.2 83.9 2.5 NW 4.0 WNW 0.0 9.2
05:05 7.2 84.1 1.9 NNW 3.6 NNW 0.0 11.6
05:10 7.1 84.9 1.7 NW 4.4 WSW 0.0 14.2
05:15 7.3 87.1 2.8 S 6.2 SSE 0.0 18.4
05:20 7.6 88.1 4.1 SSE 9.2 SSE 0.0 19.8
05:25 7.8 88.3 3.4 S 6.6 S 0.0 21.3
05:30 7.9 88.6 4.5 SSE 9.0 SSE 0.0 23.6
05:35 8.0 88.5 4.1 SSE 7.9 SSE 0.0 27.3
05:40 8.2 88.1 3.1 S 9.3 SSE 0.0 28.6
05:45 8.2 87.9 2.4 SW 5.7 WSW 0.0 33.3
05:50 8.2 88.0 2.1 W 4.2 SE 0.0 37.8
05:55 8.1 88.7 1.6 W 3.4 WSW 0.0 51.0
06:00 8.1 89.4 1.6 W 3.1 NE 0.0 106.9
06:05 8.6 89.6 2.9 SSE 7.3 S 0.0 272.3
06:10 9.5 83.0 3.3 ESE 8.3 SSE 0.0 269.7
06:15 10.1 80.8 4.8 NNE 8.6 NE 0.0 282.5
06:20 10.4 79.7 3.7 NNE 7.0 NNE 0.0 303.9
06:25 10.4 78.8 4.9 N 9.4 N 0.0 321.5
06:30 10.2 79.5 3.8 NNE 6.7 N 0.0 342.1
06:35 10.5 79.3 3.1 N 5.4 NNW 0.0 358.2
06:40 10.7 79.5 3.4 N 7.7 NNW 0.0 372.1
06:45 10.9 78.9 4.9 N 8.1 NNW 0.0 392.1
06:50 10.9 79.2 4.0 N 6.3 NNE 0.0 414.5
06:55 11.4 77.2 4.2 NE 7.5 ESE 0.0 436.4
07:00 11.6 78.2 2.7 ESE 6.3 NE 0.0 439.2
07:05 11.7 77.9 3.5 SE 10.3 E 0.0 526.9
07:10 11.9 77.7 3.7 SE 7.5 SSE 0.0 546.3
07:15 11.9 75.8 4.8 SE 11.2 SE 0.0 572.6
07:20 11.8 76.6 4.0 E 9.0 NE 0.0 588.5
07:25 11.8 75.5 4.3 SE 11.5 ESE 0.0 639.7
07:30 12.1 77.4 4.1 SE 10.9 ESE 0.0 619.6
07:35 12.3 75.6 4.3 E 9.5 E 0.0 655.2
07:40 12.6 74.0 4.6 ENE 11.1 ESE 0.0 746.1
07:45 12.6 77.0 4.7 ESE 12.3 SSE 0.0 613.3
07:50 12.8 77.0 5.0 E 11.2 ENE 0.0 563.3
07:55 12.5 78.9 4.8 S 13.4 SSE 0.0 274.7
08:00 12.5 78.2 6.2 SSE 12.2 SSW 0.0 832.0
08:05 13.1 75.5 4.7 SSE 11.5 SSE 0.0 893.0
08:10 13.7 71.8 5.8 SE 16.0 SSW 0.0 633.2
08:15 12.9 72.9 6.2 SE 15.3 ESE 0.0 485.8
08:20 12.5 73.7 6.3 SSE 12.8 ESE 0.1 787.3
08:25 13.3 72.0 5.2 SE 15.5 S 0.0 851.0
08:30 13.3 70.6 6.3 SSE 12.7 S 0.0 843.0
08:35 13.5 70.3 5.8 SSE 16.9 S 0.0 862.0
08:40 13.9 69.1 5.6 ESE 14.7 E 0.0 880.0
08:45 13.6 69.5 6.1 ESE 15.6 ENE 0.0 968.0
08:50 14.0 69.1 5.7 SSE 12.5 SE 0.0 998.0
08:55 14.2 67.4 7.0 SSE 20.0 ESE 0.0 917.0
09:00 14.0 65.4 8.3 SSE 19.2 S 0.0 873.0
09:05 13.2 68.4 6.4 SSE 20.5 SE 0.0 649.3
09:10 13.5 65.1 4.9 ESE 11.8 SSE 0.0 600.7
09:15 13.6 65.0 5.6 SSE 13.1 S 0.0 1051.0
09:20 14.5 62.0 5.8 SSE 13.6 SE 0.0 1069.0
09:25 14.8 62.2 4.8 ESE 11.1 E 0.0 988.0
09:30 14.6 62.1 6.8 ESE 18.8 S 0.0 1075.0
09:35 14.1 62.8 6.1 ENE 11.9 ENE 0.0 876.0
09:40 14.3 64.8 5.4 E 15.2 ENE 0.0 1024.0
09:45 14.6 61.8 6.4 E 15.2 ENE 0.0 973.0
09:50 14.3 62.5 6.8 ESE 19.8 NNE 0.0 785.4
09:55 13.9 62.6 5.3 E 12.8 SSE 0.0 455.1
10:00 14.1 63.4 4.4 E 11.2 NNE 0.0 382.5
10:05 13.6 62.6 6.8 ESE 17.5 NE 0.0 587.1
10:10 14.1 63.6 5.0 E 14.9 ENE 0.0 1221.0
10:15 15.2 60.5 5.2 ESE 12.7 E 0.0 851.0
10:20 15.4 58.6 5.7 SE 13.9 SSE 0.0 961.0
10:25 15.6 57.8 7.3 SE 18.1 S 0.0 716.8
10:30 14.7 59.4 4.8 SSE 11.9 SE 0.0 701.0
10:35 14.7 59.6 6.2 ESE 15.0 ENE 0.0 551.7
10:40 14.5 64.8 6.1 ESE 14.4 ENE 0.0 948.0
10:45 15.0 66.4 6.2 SSE 15.4 SE 0.0 887.0
10:50 14.3 67.0 4.8 S 10.3 SE 0.0 533.9
10:55 14.6 67.5 5.2 SE 10.7 SSW 0.0 604.3
11:00 14.1 68.6 6.1 SE 17.9 E 0.0 803.0
11:05 14.5 65.6 5.0 ESE 12.8 NE 0.0 844.0
11:10 15.2 61.6 5.9 ESE 19.5 ESE 0.0 1154.0
11:15 15.2 59.6 5.4 ESE 16.1 NE 0.0 606.7
11:20 14.7 61.8 5.6 SE 12.5 SE 0.0 331.5
11:25 14.3 63.7 5.9 SSE 11.2 ESE 0.0 751.6
11:30 15.2 61.2 6.3 SE 15.3 E 0.0 789.9
11:35 15.2 60.9 4.5 SE 10.4 ENE 0.0 916.0
11:40 15.1 58.6 6.5 SSE 19.7 SE 0.0 384.5
11:45 14.8 59.7 6.1 SE 15.1 S 0.0 798.6
11:50 14.6 58.9 5.7 SE 15.3 ENE 0.0 378.1
11:55 14.2 60.3 7.0 S 21.0 SSW 0.0 275.6
12:00 13.5 60.2 5.7 E 16.4 SE 0.0 261.9
12:05 13.5 61.8 4.7 ESE 15.3 ENE 0.0 298.1
12:10 13.7 60.5 3.9 SSE 8.1 SE 0.0 341.0
12:15 13.8 61.3 3.8 SSE 9.3 ENE 0.0 286.9
12:20 14.1 60.1 3.3 S 7.9 S 0.0 353.6
Máxima 15.6 92.5 8.3 SSE 21.0 SSW 0.1 1221.0
Mínima 6.7 57.8
Total 0.2